createdAt,value
2022-09-29T00:00:00.208Z,3.2
2022-09-29T00:05:00.174Z,3.6
2022-09-29T00:10:00.183Z,3.3
2022-09-29T00:15:00.165Z,3.4
2022-09-29T00:20:00.179Z,3.5
2022-09-29T00:25:00.191Z,3.0
2022-09-29T00:30:00.217Z,3.4
2022-09-29T00:35:00.170Z,3.4
2022-09-29T00:40:00.196Z,3.2
2022-09-29T00:45:00.163Z,3.8
2022-09-29T00:50:00.179Z,3.2
2022-09-29T00:55:00.175Z,3.5
2022-09-29T01:00:00.207Z,3.6
2022-09-29T01:05:00.179Z,3.5
2022-09-29T01:10:00.188Z,3.9
2022-09-29T01:15:00.171Z,3.9
2022-09-29T01:20:04.210Z,3.6
2022-09-29T01:25:00.156Z,3.8
2022-09-29T01:30:00.222Z,3.6
2022-09-29T01:35:00.182Z,4.2
2022-09-29T01:40:00.175Z,3.9
2022-09-29T01:45:00.175Z,4.0
2022-09-29T01:50:00.187Z,3.9
2022-09-29T01:55:00.173Z,4.0
2022-09-29T02:00:00.209Z,3.8
2022-09-29T02:05:00.175Z,3.8
2022-09-29T02:10:00.182Z,3.6
2022-09-29T02:15:00.167Z,4.5
2022-09-29T02:20:00.182Z,5.1
2022-09-29T02:25:00.159Z,4.9
2022-09-29T02:30:00.191Z,4.2
2022-09-29T02:35:00.173Z,4.1
2022-09-29T02:40:00.185Z,3.6
2022-09-29T02:45:00.188Z,4.4
2022-09-29T02:50:00.207Z,3.8
2022-09-29T02:55:00.172Z,3.7
2022-09-29T03:00:00.234Z,3.8
2022-09-29T03:05:00.189Z,4.2
2022-09-29T03:10:00.219Z,3.8
2022-09-29T03:15:00.194Z,4.0
2022-09-29T03:20:00.268Z,3.9
2022-09-29T03:25:00.196Z,3.5
2022-09-29T03:30:00.202Z,3.5
2022-09-29T03:35:00.212Z,3.7
2022-09-29T03:40:00.204Z,3.3
2022-09-29T03:45:00.185Z,3.7
2022-09-29T03:50:00.201Z,3.7
2022-09-29T03:55:00.194Z,3.6
2022-09-29T04:00:00.203Z,4.0
2022-09-29T04:05:00.179Z,4.0
2022-09-29T04:10:00.267Z,3.8
2022-09-29T04:15:00.205Z,4.4
2022-09-29T04:20:00.173Z,4.1
2022-09-29T04:25:00.191Z,4.1
2022-09-29T04:30:00.202Z,4.3
2022-09-29T04:35:00.170Z,3.6
2022-09-29T04:40:00.186Z,3.7
2022-09-29T04:45:00.213Z,3.8
2022-09-29T04:50:00.191Z,3.9
2022-09-29T04:55:00.157Z,4.7
2022-09-29T05:00:00.225Z,4.0
2022-09-29T05:05:00.199Z,4.9
2022-09-29T05:10:00.196Z,4.7
2022-09-29T05:15:00.190Z,5.4
2022-09-29T05:20:00.218Z,5.4
2022-09-29T05:25:00.171Z,5.1
2022-09-29T05:30:00.204Z,5.8
2022-09-29T05:35:00.187Z,5.1
2022-09-29T05:40:00.190Z,4.5
2022-09-29T05:45:00.201Z,4.8
2022-09-29T05:50:00.211Z,4.9
2022-09-29T05:55:00.208Z,5.6
2022-09-29T06:00:00.232Z,5.6
2022-09-29T06:05:00.191Z,5.7
2022-09-29T06:10:00.273Z,5.8
2022-09-29T06:15:00.201Z,5.6
2022-09-29T06:20:00.181Z,6.3
2022-09-29T06:25:00.260Z,6.1
2022-09-29T06:30:00.263Z,6.4
2022-09-29T06:35:00.210Z,8.2
2022-09-29T06:40:00.204Z,7.3
2022-09-29T06:45:00.187Z,6.2
2022-09-29T06:50:04.593Z,8.0
2022-09-29T06:55:00.198Z,7.1
2022-09-29T07:00:00.396Z,6.8
2022-09-29T07:05:00.205Z,6.7
2022-09-29T07:10:00.238Z,7.3
2022-09-29T07:15:00.201Z,6.4
2022-09-29T07:20:00.195Z,7.3
2022-09-29T07:25:00.202Z,6.5
2022-09-29T07:30:04.025Z,7.7
2022-09-29T07:35:00.224Z,7.9
2022-09-29T07:40:00.223Z,6.8
2022-09-29T07:45:00.208Z,8.5
2022-09-29T07:50:00.168Z,8.9
2022-09-29T07:55:00.221Z,8.3
2022-09-29T08:00:00.292Z,6.8
2022-09-29T08:05:04.240Z,8.4
2022-09-29T08:10:11.317Z,9.1
2022-09-29T08:15:00.193Z,9.3
2022-09-29T08:20:00.232Z,9.3
2022-09-29T08:25:00.197Z,7.7
2022-09-29T08:30:00.225Z,8.9
2022-09-29T08:35:00.223Z,9.4
2022-09-29T08:40:00.200Z,9.6
2022-09-29T08:45:11.916Z,9.5
2022-09-29T08:50:00.219Z,8.5
2022-09-29T08:55:01.854Z,9.2
2022-09-29T09:00:00.256Z,8.7
2022-09-29T09:05:00.202Z,9.9
2022-09-29T09:10:00.212Z,11.7
2022-09-29T09:15:00.186Z,11.7
2022-09-29T09:20:00.221Z,13.2
2022-09-29T09:25:00.205Z,12.4
2022-09-29T09:30:00.218Z,13.2
2022-09-29T09:35:11.160Z,12.8
2022-09-29T09:40:00.230Z,13.8
2022-09-29T09:45:00.207Z,13.3
2022-09-29T09:50:00.249Z,13.1
2022-09-29T09:55:00.199Z,14.1
2022-09-29T10:00:00.220Z,13.7
2022-09-29T10:05:00.324Z,14.2
2022-09-29T10:10:00.203Z,14.7
2022-09-29T10:15:00.199Z,15.5
2022-09-29T10:20:00.228Z,13.7
2022-09-29T10:25:00.186Z,12.6
2022-09-29T10:30:00.282Z,13.8
2022-09-29T10:35:00.171Z,13.1
2022-09-29T10:40:00.233Z,12.4
2022-09-29T10:45:00.204Z,11.9
2022-09-29T10:50:00.215Z,10.1
2022-09-29T10:55:00.217Z,10.4
2022-09-29T11:00:00.256Z,10.6
2022-09-29T11:05:00.204Z,9.8
2022-09-29T11:10:00.222Z,8.7
2022-09-29T11:15:00.226Z,8.0
2022-09-29T11:20:00.239Z,7.5
2022-09-29T11:25:00.200Z,7.8
2022-09-29T11:30:03.063Z,6.0
2022-09-29T11:35:00.247Z,6.4
2022-09-29T11:40:00.226Z,6.8
2022-09-29T11:45:00.234Z,5.6
2022-09-29T11:50:00.219Z,5.7
2022-09-29T11:55:00.210Z,5.8
2022-09-29T12:00:00.219Z,5.8
2022-09-29T12:05:00.199Z,5.6
2022-09-29T12:10:00.221Z,5.7
2022-09-29T12:15:00.203Z,5.4
2022-09-29T12:20:00.195Z,6.4
2022-09-29T12:25:00.198Z,5.6
2022-09-29T12:30:00.214Z,5.5
2022-09-29T12:35:00.209Z,5.4
2022-09-29T12:40:00.217Z,5.4
2022-09-29T12:45:00.206Z,5.0
2022-09-29T12:50:00.182Z,4.7
2022-09-29T12:55:00.205Z,4.5
2022-09-29T13:00:00.235Z,5.0
2022-09-29T13:05:00.201Z,4.3
2022-09-29T13:10:00.197Z,3.6
2022-09-29T13:15:00.189Z,3.8
2022-09-29T13:20:00.917Z,3.8
2022-09-29T13:25:00.204Z,4.9
2022-09-29T13:30:00.243Z,4.2
2022-09-29T13:35:00.195Z,4.0
2022-09-29T13:40:03.475Z,4.0
2022-09-29T13:45:00.184Z,3.7
2022-09-29T13:50:00.202Z,3.8
2022-09-29T13:55:00.192Z,4.1
2022-09-29T14:00:00.233Z,4.6
2022-09-29T14:05:00.207Z,4.7
2022-09-29T14:10:00.414Z,4.0
2022-09-29T14:15:00.258Z,4.0
2022-09-29T14:20:00.208Z,3.9
2022-09-29T14:25:00.192Z,4.3
2022-09-29T14:30:00.334Z,3.4
2022-09-29T14:35:00.204Z,3.2
2022-09-29T14:40:02.327Z,3.5
2022-09-29T14:45:00.202Z,4.7
2022-09-29T14:50:00.212Z,4.5
2022-09-29T14:55:00.310Z,4.7
2022-09-29T15:00:00.314Z,4.8
2022-09-29T15:05:00.182Z,3.9
2022-09-29T15:10:00.249Z,3.9
2022-09-29T15:15:00.234Z,4.0
2022-09-29T15:20:00.189Z,4.6
2022-09-29T15:25:00.209Z,4.5
2022-09-29T15:30:00.267Z,3.7
2022-09-29T15:35:00.203Z,3.9
2022-09-29T15:40:00.201Z,3.6
2022-09-29T15:45:00.217Z,3.7
2022-09-29T15:50:00.255Z,2.6
2022-09-29T15:55:00.211Z,2.5
2022-09-29T16:00:00.212Z,2.4
2022-09-29T16:05:00.179Z,3.3
2022-09-29T16:10:00.188Z,4.1
2022-09-29T16:15:00.190Z,3.3
2022-09-29T16:20:00.195Z,2.7
2022-09-29T16:25:00.205Z,2.6
2022-09-29T16:30:00.241Z,2.9
2022-09-29T16:35:00.188Z,2.8
2022-09-29T16:40:00.222Z,3.6
2022-09-29T16:45:00.173Z,2.9
2022-09-29T16:50:00.185Z,3.2
2022-09-29T16:55:00.193Z,3.3
2022-09-29T17:00:00.253Z,3.1
2022-09-29T17:05:00.202Z,3.3
2022-09-29T17:10:00.225Z,3.7
2022-09-29T17:15:00.206Z,3.2
2022-09-29T17:20:00.193Z,4.1
2022-09-29T17:25:00.214Z,4.3
2022-09-29T17:30:00.226Z,5.1
2022-09-29T17:35:00.207Z,7.0
2022-09-29T17:40:00.183Z,5.2
2022-09-29T17:45:00.197Z,5.0
2022-09-29T17:50:00.183Z,5.5
2022-09-29T17:55:00.211Z,5.3
2022-09-29T18:00:00.213Z,5.4
2022-09-29T18:05:00.186Z,6.6
2022-09-29T18:10:00.200Z,7.9
2022-09-29T18:15:00.211Z,8.1
2022-09-29T18:20:00.181Z,8.5
2022-09-29T18:25:00.211Z,8.5
2022-09-29T18:30:00.184Z,8.3
2022-09-29T18:35:00.205Z,7.9
2022-09-29T18:40:00.205Z,8.2
2022-09-29T18:45:00.195Z,7.1
2022-09-29T18:50:00.206Z,14.0
2022-09-29T18:55:00.444Z,10.1
2022-09-29T19:00:00.251Z,7.7
2022-09-29T19:05:00.206Z,7.1
2022-09-29T19:10:00.208Z,6.0
2022-09-29T19:15:00.412Z,6.4
2022-09-29T19:20:00.221Z,6.4
2022-09-29T19:25:00.181Z,9.6
2022-09-29T19:30:03.295Z,9.3
2022-09-29T19:35:00.185Z,10.0
2022-09-29T19:40:00.197Z,10.4
2022-09-29T19:45:00.180Z,10.3
2022-09-29T19:50:00.194Z,9.1
2022-09-29T19:55:00.188Z,8.7
2022-09-29T20:00:00.260Z,8.6
2022-09-29T20:05:00.180Z,10.5
2022-09-29T20:10:00.180Z,9.0
2022-09-29T20:15:00.178Z,10.1
2022-09-29T20:20:00.185Z,10.0
2022-09-29T20:25:00.175Z,10.1
2022-09-29T20:30:00.170Z,9.3
2022-09-29T20:35:00.194Z,9.8
2022-09-29T20:40:00.197Z,9.5
2022-09-29T20:45:00.192Z,9.1
2022-09-29T20:50:00.202Z,9.9
2022-09-29T20:55:00.197Z,9.2
2022-09-29T21:00:00.245Z,8.9
2022-09-29T21:05:00.171Z,8.8
2022-09-29T21:10:00.235Z,9.6
2022-09-29T21:15:00.155Z,9.8
2022-09-29T21:20:00.176Z,10.1
2022-09-29T21:25:00.180Z,9.4
2022-09-29T21:30:00.202Z,9.8
2022-09-29T21:35:00.172Z,9.9
2022-09-29T21:40:00.197Z,10.7
2022-09-29T21:45:00.183Z,10.3
2022-09-29T21:50:00.181Z,10.8
2022-09-29T21:55:00.174Z,12.0
2022-09-29T22:00:00.216Z,11.1
2022-09-29T22:05:00.162Z,10.9
2022-09-29T22:10:00.205Z,9.8
2022-09-29T22:15:00.189Z,10.0
2022-09-29T22:20:00.177Z,9.9
2022-09-29T22:25:00.177Z,10.2
2022-09-29T22:30:00.185Z,10.7
2022-09-29T22:35:00.186Z,10.8
2022-09-29T22:40:00.155Z,9.9
2022-09-29T22:45:00.175Z,9.5
2022-09-29T22:50:00.200Z,10.3
2022-09-29T22:55:00.167Z,9.2
2022-09-29T23:00:00.195Z,9.4
2022-09-29T23:05:00.180Z,9.1
2022-09-29T23:10:00.211Z,9.0
2022-09-29T23:15:00.156Z,8.8
2022-09-29T23:20:00.181Z,8.9
2022-09-29T23:25:00.165Z,8.5
2022-09-29T23:30:00.183Z,8.5
2022-09-29T23:35:00.179Z,7.7
2022-09-29T23:40:00.174Z,7.8
2022-09-29T23:45:00.172Z,7.5
2022-09-29T23:50:00.193Z,6.5
2022-09-29T23:55:00.177Z,6.3
